| time (UTC) | temp F | wind direction | speed MPH | gust MPH | rain 1hr in | rain 24hr in | rain mn in | humidity % | barometer mb |
| 20260507134203 | 42 | 190 | 5.0 | 7.0 | 0.04 | 0.11 | 0.11 | 80 | 1014.8 |
| 20260507133703 | 42 | 193 | 6.0 | 9.0 | 0.05 | 0.11 | 0.11 | 79 | 1014.8 |
| 20260507132703 | 42 | 185 | 5.0 | 12.0 | 0.07 | 0.11 | 0.11 | 79 | 1014.8 |
| 20260507131703 | 43 | 198 | 6.0 | 10.0 | 0.08 | 0.10 | 0.10 | 77 | 1014.6 |
| 20260507131203 | 45 | 223 | 6.0 | 13.0 | 0.09 | 0.10 | 0.10 | 73 | 1014.4 |
| 20260507130203 | 45 | 327 | 12.0 | 17.0 | 0.09 | 0.09 | 0.09 | 76 | 1013.8 |
| 20260507124703 | 41 | 186 | 7.0 | 10.0 | 0.07 | 0.07 | 0.07 | 78 | 1014.7 |
| 20260507123703 | 41 | 203 | 7.0 | 12.0 | 0.06 | 0.06 | 0.06 | 77 | 1015.1 |
| 20260507123203 | 41 | 198 | 7.0 | 10.0 | 0.05 | 0.05 | 0.05 | 78 | 1015.0 |
| 20260507122203 | 41 | 195 | 2.0 | 3.0 | 0.03 | 0.03 | 0.03 | 75 | 1014.8 |
| 20260507121703 | 42 | 205 | 1.0 | 3.0 | 0.02 | 0.02 | 0.02 | 72 | 1014.6 |
| 20260507113703 | 39 | 165 | 0.0 | 0.0 | 0.00 | 0.00 | 0.00 | 68 | 1014.1 |
| 20260507112703 | 38 | 161 | 0.0 | 0.0 | 0.00 | 0.00 | 0.00 | 70 | 1013.9 |
| 20260507111203 | 37 | 164 | 0.0 | 0.0 | 0.00 | 0.00 | 0.00 | 70 | 1014.1 |
| 20260507110703 | 37 | 164 | 0.0 | 0.0 | 0.00 | 0.00 | 0.00 | 69 | 1014.2 |
| 20260507105703 | 38 | 164 | 0.0 | 0.0 | 0.00 | 0.00 | 0.00 | 68 | 1014.5 |
| 20260507104704 | 39 | 165 | 0.0 | 0.0 | 0.00 | 0.00 | 0.00 | 67 | 1014.8 |
| 20260507104203 | 39 | 165 | 0.0 | 0.0 | 0.00 | 0.00 | 0.00 | 66 | 1014.8 |
| 20260507103703 | 39 | 166 | 0.0 | 0.0 | 0.00 | 0.00 | 0.00 | 65 | 1014.9 |
| 20260507102703 | 40 | 165 | 2.0 | 3.0 | 0.00 | 0.00 | 0.00 | 65 | 1015.0 |
| 20260507102203 | 40 | 165 | 0.0 | 1.0 | 0.00 | 0.00 | 0.00 | 64 | 1015.1 |
| 20260507100703 | 40 | 192 | 0.0 | 2.0 | 0.00 | 0.00 | 0.00 | 63 | 1015.4 |
| 20260507095203 | 41 | 191 | 2.0 | 3.0 | 0.00 | 0.00 | 0.00 | 61 | 1015.7 |
| 20260507094703 | 41 | 187 | 2.0 | 3.0 | 0.00 | 0.00 | 0.00 | 63 | 1015.8 |
| 20260507093203 | 42 | 193 | 3.0 | 7.0 | 0.00 | 0.00 | 0.00 | 58 | 1015.7 |
| 20260507092203 | 41 | 191 | 5.0 | 6.0 | 0.00 | 0.00 | 0.00 | 60 | 1015.8 |
| 20260507091203 | 41 | 201 | 3.0 | 5.0 | 0.00 | 0.00 | 0.00 | 61 | 1015.9 |
| 20260507090703 | 41 | 193 | 5.0 | 7.0 | 0.00 | 0.00 | 0.00 | 60 | 1015.8 |
| 20260507085704 | 41 | 189 | 3.0 | 6.0 | 0.00 | 0.00 | 0.00 | 61 | 1015.9 |
| 20260507085203 | 41 | 187 | 3.0 | 5.0 | 0.00 | 0.00 | 0.00 | 61 | 1015.9 |
| 20260507083703 | 41 | 191 | 3.0 | 3.0 | 0.00 | 0.00 | 0.00 | 62 | 1016.0 |
| 20260507083203 | 41 | 188 | 3.0 | 6.0 | 0.00 | 0.00 | 0.00 | 61 | 1016.0 |
| 20260507081703 | 41 | 180 | 4.0 | 6.0 | 0.00 | 0.00 | 0.00 | 61 | 1016.2 |
| 20260507081203 | 41 | 185 | 3.0 | 7.0 | 0.00 | 0.00 | 0.00 | 61 | 1016.2 |
| 20260507080703 | 41 | 189 | 3.0 | 7.0 | 0.00 | 0.00 | 0.00 | 62 | 1016.2 |
| 20260507080204 | 40 | 184 | 3.0 | 6.0 | 0.00 | 0.00 | 0.00 | 62 | 1016.2 |
| 20260507075704 | 41 | 186 | 3.0 | 5.0 | 0.00 | 0.00 | 0.00 | 61 | 1016.2 |
| 20260507072703 | 41 | 161 | 3.0 | 3.0 | 0.00 | 0.00 | 0.00 | 55 | 1016.3 |
| 20260507072203 | 41 | 161 | 2.0 | 3.0 | 0.00 | 0.00 | 0.00 | 56 | 1016.4 |
| 20260507071703 | 41 | 162 | 1.0 | 3.0 | 0.00 | 0.00 | 0.00 | 56 | 1016.4 |
| 20260507070204 | 38 | 159 | 0.0 | 0.0 | 0.00 | 0.00 | 0.00 | 62 | 1016.7 |
| 20260507065704 | 38 | 159 | 0.0 | 0.0 | 0.00 | 0.00 | 0.00 | 60 | 1016.7 |
| 20260507064203 | 40 | 159 | 0.0 | 0.0 | 0.00 | 0.00 | 0.00 | 56 | 1016.8 |
| 20260507063704 | 40 | 159 | 0.0 | 2.0 | 0.00 | 0.00 | 0.00 | 57 | 1016.8 |
| 20260507063203 | 41 | 159 | 0.0 | 2.0 | 0.00 | 0.00 | 0.00 | 57 | 1016.8 |
| 20260507062703 | 41 | 161 | 1.0 | 3.0 | 0.00 | 0.00 | 0.00 | 56 | 1016.9 |
| 20260507061203 | 40 | 169 | 2.0 | 5.0 | 0.00 | 0.00 | 0.00 | 54 | 1016.9 |
| 20260507060203 | 41 | 169 | 2.0 | 3.0 | 0.00 | 0.00 | 0.00 | 55 | 1017.0 |
| 20260507055703 | 41 | 169 | 3.0 | 3.0 | 0.00 | 0.00 | 0.00 | 54 | 1017.0 |
| 20260507055204 | 40 | 167 | 3.0 | 3.0 | 0.00 | 0.00 | 0.00 | 54 | 1017.1 |
| 20260507054703 | 40 | 185 | 0.0 | 1.0 | 0.00 | 0.00 | 0.00 | 55 | 1017.1 |
| 20260507054203 | 41 | 186 | 1.0 | 2.0 | 0.00 | 0.00 | 0.00 | 53 | 1017.1 |
| 20260507053703 | 41 | 187 | 0.0 | 2.0 | 0.00 | 0.00 | 0.00 | 53 | 1017.1 |
| 20260507053203 | 42 | 188 | 0.0 | 0.0 | 0.00 | 0.00 | 0.00 | 53 | 1017.1 |
| 20260507052203 | 42 | 188 | 0.0 | 2.0 | 0.00 | 0.00 | 0.00 | 51 | 1017.2 |
| 20260507051204 | 41 | 193 | 2.0 | 2.0 | 0.00 | 0.00 | 0.00 | 53 | 1017.3 |
| 20260507050703 | 41 | 216 | 0.0 | 1.0 | 0.00 | 0.00 | 0.00 | 54 | 1017.2 |
| 20260507050203 | 41 | 219 | 0.0 | 0.0 | 0.00 | 0.00 | 0.00 | 54 | 1017.3 |
| 20260507045703 | 41 | 219 | 0.0 | 0.0 | 0.00 | 0.00 | 0.00 | 53 | 1017.3 |
| 20260507044704 | 42 | 219 | 1.0 | 2.0 | 0.00 | 0.00 | 0.00 | 52 | 1017.3 |
| 20260507042704 | 42 | 275 | 0.0 | 0.0 | 0.00 | 0.00 | 0.00 | 50 | 1017.5 |
| 20260507042203 | 42 | 275 | 0.0 | 0.0 | 0.00 | 0.00 | 0.00 | 50 | 1017.5 |
| 20260507041203 | 43 | 275 | 0.0 | 0.0 | 0.00 | 0.00 | 0.00 | 50 | 1017.5 |
| 20260507035704 | 43 | 275 | 0.0 | 0.0 | 0.00 | 0.00 | 0.00 | 49 | 1017.6 |
| 20260507034703 | 44 | 275 | 0.0 | 0.0 | 0.00 | 0.00 | 0.00 | 49 | 1017.7 |
| 20260507033704 | 44 | 275 | 0.0 | 0.0 | 0.00 | 0.00 | 0.00 | 46 | 1017.8 |
| 20260507033203 | 44 | 275 | 0.0 | 0.0 | 0.00 | 0.00 | 0.00 | 45 | 1017.7 |
| 20260507032203 | 45 | 275 | 0.0 | 0.0 | 0.00 | 0.00 | 0.00 | 45 | 1017.8 |
| 20260507031704 | 45 | 275 | 0.0 | 0.0 | 0.00 | 0.00 | 0.00 | 44 | 1017.8 |
| 20260507031204 | 45 | 275 | 0.0 | 0.0 | 0.00 | 0.00 | 0.00 | 45 | 1017.8 |
| 20260507030203 | 45 | 275 | 0.0 | 0.0 | 0.00 | 0.00 | 0.00 | 45 | 1017.8 |
| 20260507025703 | 46 | 275 | 0.0 | 0.0 | 0.00 | 0.00 | 0.00 | 45 | 1017.7 |
| 20260507024203 | 46 | 275 | 0.0 | 0.0 | 0.00 | 0.00 | 0.00 | 43 | 1017.6 |
| 20260507023703 | 46 | 275 | 0.0 | 0.0 | 0.00 | 0.00 | 0.00 | 43 | 1017.6 |
| 20260507022704 | 46 | 275 | 0.0 | 0.0 | 0.00 | 0.00 | 0.00 | 44 | 1017.6 |
| 20260507022203 | 46 | 275 | 0.0 | 0.0 | 0.00 | 0.00 | 0.00 | 44 | 1017.6 |
| 20260507021203 | 47 | 275 | 0.0 | 0.0 | 0.00 | 0.00 | 0.00 | 42 | 1017.6 |
| 20260507020703 | 47 | 275 | 0.0 | 0.0 | 0.00 | 0.00 | 0.00 | 42 | 1017.6 |
| 20260507013703 | 49 | 298 | 0.0 | 3.0 | 0.00 | 0.00 | 0.00 | 40 | 1017.4 |
| 20260507013204 | 49 | 297 | 1.0 | 1.0 | 0.00 | 0.00 | 0.00 | 41 | 1017.4 |
| 20260507012704 | 50 | 297 | 1.0 | 2.0 | 0.00 | 0.00 | 0.00 | 39 | 1017.4 |
| 20260507012204 | 50 | 297 | 0.0 | 1.0 | 0.00 | 0.00 | 0.00 | 39 | 1017.5 |
| 20260507011703 | 50 | 297 | 0.0 | 2.0 | 0.00 | 0.00 | 0.00 | 38 | 1017.5 |
| 20260507011203 | 51 | 297 | 1.0 | 3.0 | 0.00 | 0.00 | 0.00 | 38 | 1017.4 |
| 20260507005704 | 51 | 282 | 2.0 | 6.0 | 0.00 | 0.00 | 0.00 | 38 | 1017.5 |
| 20260507005203 | 51 | 277 | 3.0 | 9.0 | 0.00 | 0.00 | 0.00 | 38 | 1017.6 |
| 20260507004703 | 52 | 289 | 3.0 | 7.0 | 0.00 | 0.00 | 0.00 | 37 | 1017.6 |
| 20260507002703 | 53 | 288 | 5.0 | 7.0 | 0.00 | 0.00 | 0.00 | 36 | 1017.4 |
| 20260507002204 | 53 | 290 | 5.0 | 10.0 | 0.00 | 0.00 | 0.00 | 36 | 1017.4 |
| 20260507001204 | 53 | 277 | 7.0 | 15.0 | 0.00 | 0.00 | 0.00 | 35 | 1017.4 |
| 20260507000704 | 54 | 276 | 9.0 | 14.0 | 0.00 | 0.00 | 0.00 | 34 | 1017.4 |
| 20260507000205 | 54 | 290 | 6.0 | 10.0 | 0.00 | 0.00 | 0.00 | 34 | 1017.4 |
| 20260506234703 | 54 | 292 | 4.0 | 9.0 | 0.00 | 0.00 | 0.00 | 36 | 1017.6 |
| 20260506234203 | 54 | 301 | 6.0 | 9.0 | 0.00 | 0.00 | 0.00 | 36 | 1017.5 |
| 20260506232204 | 54 | 271 | 6.0 | 12.0 | 0.00 | 0.00 | 0.00 | 35 | 1017.7 |
| 20260506231704 | 54 | 284 | 10.0 | 14.0 | 0.00 | 0.00 | 0.00 | 34 | 1017.6 |
| 20260506231204 | 54 | 260 | 10.0 | 14.0 | 0.00 | 0.00 | 0.00 | 36 | 1017.6 |
| 20260506230704 | 54 | 272 | 12.0 | 15.0 | 0.00 | 0.00 | 0.00 | 35 | 1017.7 |
| 20260506230203 | 54 | 283 | 7.0 | 12.0 | 0.00 | 0.00 | 0.00 | 35 | 1017.7 |
| 20260506224204 | 54 | 317 | 10.0 | 16.0 | 0.00 | 0.00 | 0.00 | 35 | 1017.7 |
| 20260506223203 | 53 | 282 | 9.0 | 12.0 | 0.00 | 0.00 | 0.00 | 35 | 1017.8 |
| 20260506222204 | 54 | 271 | 9.0 | 15.0 | 0.00 | 0.00 | 0.00 | 37 | 1017.8 |
| 20260506221703 | 54 | 297 | 10.0 | 16.0 | 0.00 | 0.00 | 0.00 | 34 | 1017.9 |
| 20260506221204 | 55 | 296 | 13.0 | 20.0 | 0.00 | 0.00 | 0.00 | 34 | 1017.7 |
| 20260506220704 | 56 | 270 | 13.0 | 18.0 | 0.00 | 0.00 | 0.00 | 35 | 1017.8 |
| 20260506220203 | 55 | 304 | 9.0 | 16.0 | 0.00 | 0.00 | 0.00 | 36 | 1017.8 |
| 20260506214704 | 55 | 277 | 12.0 | 20.0 | 0.00 | 0.00 | 0.00 | 35 | 1017.8 |
| 20260506214203 | 56 | 269 | 12.0 | 16.0 | 0.00 | 0.00 | 0.00 | 35 | 1017.8 |
| 20260506213704 | 56 | 310 | 9.0 | 20.0 | 0.00 | 0.00 | 0.00 | 35 | 1017.8 |
| 20260506213204 | 53 | 265 | 9.0 | 14.0 | 0.00 | 0.00 | 0.00 | 37 | 1017.9 |
| 20260506212203 | 54 | 289 | 10.0 | 20.0 | 0.00 | 0.00 | 0.00 | 38 | 1018.0 |
| 20260506210704 | 53 | 294 | 9.0 | 15.0 | 0.00 | 0.00 | 0.00 | 37 | 1017.9 |
| 20260506205703 | 56 | 270 | 13.0 | 22.0 | 0.00 | 0.00 | 0.00 | 36 | 1017.9 |
| 20260506204204 | 54 | 272 | 7.0 | 20.0 | 0.00 | 0.00 | 0.00 | 37 | 1018.2 |
| 20260506203704 | 54 | 285 | 11.0 | 17.0 | 0.00 | 0.00 | 0.00 | 37 | 1018.2 |
| 20260506201204 | 53 | 277 | 8.0 | 14.0 | 0.00 | 0.00 | 0.00 | 37 | 1018.4 |
| 20260506200704 | 53 | 295 | 5.0 | 9.0 | 0.00 | 0.00 | 0.00 | 40 | 1018.5 |
| 20260506200203 | 53 | 291 | 12.0 | 16.0 | 0.00 | 0.00 | 0.00 | 37 | 1018.6 |
| 20260506195203 | 53 | 276 | 12.0 | 18.0 | 0.00 | 0.00 | 0.00 | 38 | 1018.7 |
| 20260506194704 | 52 | 268 | 13.0 | 18.0 | 0.00 | 0.00 | 0.00 | 41 | 1018.7 |
| 20260506194204 | 54 | 268 | 10.0 | 14.0 | 0.00 | 0.00 | 0.00 | 39 | 1018.8 |
| 20260506193704 | 53 | 291 | 9.0 | 13.0 | 0.00 | 0.00 | 0.00 | 41 | 1018.7 |
| 20260506192703 | 52 | 284 | 8.0 | 14.0 | 0.00 | 0.00 | 0.00 | 44 | 1018.9 |
| 20260506191203 | 51 | 309 | 9.0 | 14.0 | 0.00 | 0.00 | 0.00 | 40 | 1018.9 |
| 20260506190204 | 53 | 262 | 9.0 | 18.0 | 0.00 | 0.00 | 0.00 | 39 | 1019.1 |
| 20260506183704 | 52 | 288 | 12.0 | 18.0 | 0.00 | 0.00 | 0.00 | 42 | 1019.0 |
| 20260506183203 | 52 | 286 | 10.0 | 15.0 | 0.00 | 0.00 | 0.00 | 40 | 1019.1 |
| 20260506180704 | 52 | 301 | 11.0 | 17.0 | 0.00 | 0.00 | 0.00 | 41 | 1019.1 |
| 20260506175203 | 51 | 269 | 7.0 | 13.0 | 0.00 | 0.00 | 0.00 | 44 | 1019.2 |
| 20260506174704 | 51 | 300 | 11.0 | 16.0 | 0.00 | 0.00 | 0.00 | 42 | 1019.2 |
| 20260506174204 | 51 | 286 | 9.0 | 13.0 | 0.00 | 0.00 | 0.00 | 44 | 1019.2 |
| 20260506171703 | 50 | 265 | 10.0 | 16.0 | 0.00 | 0.00 | 0.00 | 42 | 1019.3 |
| 20260506171204 | 50 | 291 | 6.0 | 15.0 | 0.00 | 0.00 | 0.00 | 42 | 1019.5 |
| 20260506170703 | 50 | 280 | 10.0 | 14.0 | 0.00 | 0.00 | 0.00 | 43 | 1019.5 |
| 20260506170204 | 50 | 301 | 9.0 | 12.0 | 0.00 | 0.00 | 0.00 | 43 | 1019.5 |
| 20260506165203 | 49 | 288 | 13.0 | 16.0 | 0.00 | 0.00 | 0.00 | 41 | 1019.6 |
| 20260506164204 | 50 | 264 | 10.0 | 16.0 | 0.00 | 0.00 | 0.00 | 43 | 1019.5 |
| 20260506163704 | 50 | 288 | 9.0 | 14.0 | 0.00 | 0.00 | 0.00 | 45 | 1019.5 |
| 20260506163203 | 49 | 284 | 10.0 | 15.0 | 0.00 | 0.00 | 0.00 | 42 | 1019.5 |
| 20260506162704 | 49 | 290 | 10.0 | 18.0 | 0.00 | 0.00 | 0.00 | 45 | 1019.4 |
| 20260506161203 | 50 | 303 | 5.0 | 10.0 | 0.00 | 0.00 | 0.00 | 45 | 1019.2 |
| 20260506155202 | 50 | 300 | 5.0 | 16.0 | 0.00 | 0.00 | 0.00 | 43 | 1019.2 |
| 20260506154702 | 50 | 298 | 5.0 | 10.0 | 0.00 | 0.00 | 0.00 | 42 | 1019.3 |
| 20260506153202 | 49 | 306 | 8.0 | 12.0 | 0.00 | 0.00 | 0.00 | 47 | 1019.1 |
| 20260506152702 | 49 | 322 | 7.0 | 10.0 | 0.00 | 0.00 | 0.00 | 44 | 1019.2 |
| 20260506150202 | 49 | 317 | 5.0 | 10.0 | 0.00 | 0.00 | 0.00 | 46 | 1019.0 |
| 20260506145202 | 48 | 352 | 4.0 | 10.0 | 0.00 | 0.00 | 0.00 | 50 | 1019.1 |
| 20260506144202 | 47 | 328 | 5.0 | 9.0 | 0.00 | 0.00 | 0.00 | 47 | 1019.1 |
| 20260506143202 | 47 | 302 | 5.0 | 8.0 | 0.00 | 0.00 | 0.00 | 52 | 1019.0 |
| 20260506142703 | 47 | 3 | 3.0 | 8.0 | 0.00 | 0.00 | 0.00 | 49 | 1019.0 |
| 20260506142202 | 46 | 3 | 5.0 | 8.0 | 0.00 | 0.00 | 0.00 | 47 | 1019.1 |
| 20260506141702 | 46 | 335 | 5.0 | 7.0 | 0.00 | 0.00 | 0.00 | 50 | 1018.9 |
| 20260506141202 | 46 | 9 | 5.0 | 12.0 | 0.00 | 0.00 | 0.00 | 52 | 1018.9 |
| 20260506140702 | 45 | 1 | 5.0 | 8.0 | 0.00 | 0.00 | 0.00 | 51 | 1018.8 |